Time;durP1;ratioP1;P1;durP2;ratioP2;P2;SDS_P1;SDS_P2;PMS_P1;PMS_P2;Temp;Humidity;BMP_temperature;BMP_pressure;BME280_temperature;BME280_humidity;BME280_pressure;Samples;Min_cycle;Max_cycle;Signal;HPM_P1;HPM_P2
2021/01/20 00:01:30;;;;;;;27.13;10.02;;;;;;;;;;5028096;28;20095;-76
2021/01/20 00:03:56;;;;;;;14.38;5.72;;;;;;;;;;5025686;28;20040;-74
2021/01/20 00:06:22;;;;;;;17.15;8.15;;;;;;;;;;5026516;28;20113;-75
2021/01/20 00:08:48;;;;;;;17.05;7.63;;;;;;;;;;5018803;28;20026;-74
2021/01/20 00:11:14;;;;;;;26.58;10.23;;;;;;;;;;5030039;28;20128;-74
2021/01/20 00:13:41;;;;;;;15.55;8.00;;;;;;;;;;5029048;28;20049;-76
2021/01/20 00:16:07;;;;;;;18.55;8.52;;;;;;;;;;5025724;28;20032;-75
2021/01/20 00:18:33;;;;;;;13.13;6.35;;;;;;;;;;5020700;28;20057;-75
2021/01/20 00:20:59;;;;;;;8.23;4.45;;;;;;;;;;5029032;28;20025;-76
2021/01/20 00:23:25;;;;;;;16.83;6.32;;;;;;;;;;5029900;28;20025;-75
2021/01/20 00:25:51;;;;;;;12.23;6.18;;;;;;;;;;5018016;28;20029;-76
2021/01/20 00:28:17;;;;;;;15.05;6.88;;;;;;;;;;5026993;28;20045;-76
2021/01/20 00:30:43;;;;;;;21.30;9.43;;;;;;;;;;5024473;28;20014;-75
2021/01/20 00:33:09;;;;;;;15.95;7.53;;;;;;;;;;5030541;28;20028;-77
2021/01/20 00:35:35;;;;;;;17.52;7.70;;;;;;;;;;5027866;28;20060;-75
2021/01/20 00:38:01;;;;;;;17.63;8.95;;;;;;;;;;5027533;28;20051;-74
2021/01/20 00:40:27;;;;;;;9.90;5.55;;;;;;;;;;5024125;28;20109;-77
2021/01/20 00:42:53;;;;;;;22.08;8.23;;;;;;;;;;5017064;28;20033;-75
2021/01/20 00:45:19;;;;;;;17.40;6.85;;;;;;;;;;5022597;28;20021;-75
2021/01/20 00:47:45;;;;;;;20.15;7.90;;;;;;;;;;5027901;28;20026;-75
2021/01/20 00:50:12;;;;;;;8.82;4.47;;;;;;;;;;5029229;28;20104;-75
2021/01/20 00:52:38;;;;;;;8.80;4.88;;;;;;;;;;5030849;28;20033;-76
2021/01/20 00:55:06;;;;;;;17.70;8.45;;;;;;;;;;5023252;28;20053;-73
2021/01/20 00:57:32;;;;;;;13.68;8.10;;;;;;;;;;5036611;28;20044;-78
2021/01/20 00:59:58;;;;;;;15.80;8.90;;;;;;;;;;5023740;28;20041;-76
2021/01/20 01:02:24;;;;;;;16.98;7.82;;;;;;;;;;5026763;28;20230;-75
2021/01/20 01:04:50;;;;;;;24.70;12.23;;;;;;;;;;5020891;28;20040;-76
2021/01/20 01:07:16;;;;;;;17.48;8.95;;;;;;;;;;5014529;28;20083;-76
2021/01/20 01:09:42;;;;;;;21.88;10.38;;;;;;;;;;5026117;28;20026;-75
2021/01/20 01:12:08;;;;;;;19.35;9.27;;;;;;;;;;5027371;28;20040;-75
2021/01/20 01:14:35;;;;;;;11.50;5.97;;;;;;;;;;5018001;28;20025;-74
2021/01/20 01:17:01;;;;;;;26.23;7.72;;;;;;;;;;5022223;28;20087;-75
2021/01/20 01:19:27;;;;;;;19.08;8.85;;;;;;;;;;5029616;28;20021;-76
2021/01/20 01:21:53;;;;;;;15.95;8.25;;;;;;;;;;5020777;28;20104;-76
2021/01/20 01:24:19;;;;;;;28.35;10.23;;;;;;;;;;5027888;28;20022;-75
2021/01/20 01:26:45;;;;;;;19.92;10.35;;;;;;;;;;5024952;28;20091;-75
2021/01/20 01:29:11;;;;;;;20.33;10.80;;;;;;;;;;5026585;28;20026;-76
2021/01/20 01:31:37;;;;;;;16.52;8.82;;;;;;;;;;5027614;28;20017;-76
2021/01/20 01:34:03;;;;;;;21.58;8.88;;;;;;;;;;5030185;28;20044;-77
2021/01/20 01:36:29;;;;;;;14.50;8.00;;;;;;;;;;5025629;28;20401;-73
2021/01/20 01:38:55;;;;;;;19.63;10.57;;;;;;;;;;5030117;28;20029;-77
2021/01/20 01:41:21;;;;;;;18.38;9.88;;;;;;;;;;5026492;28;20134;-77
2021/01/20 01:43:47;;;;;;;11.30;4.75;;;;;;;;;;5025101;28;20337;-77
2021/01/20 01:46:13;;;;;;;25.60;11.57;;;;;;;;;;5017692;28;20022;-77
2021/01/20 01:48:39;;;;;;;19.08;8.32;;;;;;;;;;5025917;28;20034;-76
2021/01/20 01:51:05;;;;;;;18.42;7.70;;;;;;;;;;5028679;28;20095;-75
2021/01/20 01:53:31;;;;;;;25.10;9.45;;;;;;;;;;5022886;28;20018;-76
2021/01/20 01:55:58;;;;;;;15.02;7.78;;;;;;;;;;5024736;28;20442;-76
2021/01/20 01:58:24;;;;;;;14.38;6.82;;;;;;;;;;5030495;28;20018;-76
2021/01/20 02:00:50;;;;;;;17.10;9.40;;;;;;;;;;5019571;28;20029;-76
2021/01/20 02:03:16;;;;;;;14.90;7.88;;;;;;;;;;5022881;28;20073;-81
2021/01/20 02:05:42;;;;;;;21.02;7.70;;;;;;;;;;5022564;28;20030;-76
2021/01/20 02:08:08;;;;;;;21.20;12.63;;;;;;;;;;5024477;28;20432;-77
2021/01/20 02:10:34;;;;;;;18.70;10.95;;;;;;;;;;5010939;28;20018;-77
2021/01/20 02:13:09;;;;;;;18.75;9.00;;;;;;;;;;5012523;28;20030;-78
2021/01/20 02:15:48;;;;;;;22.90;11.35;;;;;;;;;;5021594;28;20037;-76
2021/01/20 02:18:15;;;;;;;15.70;8.45;;;;;;;;;;5031659;28;20022;-78
2021/01/20 02:20:41;;;;;;;18.52;8.10;;;;;;;;;;5027070;28;20025;-76
2021/01/20 02:23:10;;;;;;;22.02;11.18;;;;;;;;;;5029131;28;20022;-77
2021/01/20 02:25:41;;;;;;;14.50;7.93;;;;;;;;;;5021392;28;20038;-77
2021/01/20 02:28:07;;;;;;;;;;;;;;;;;;5025922;28;20100;-75
2021/01/20 02:30:35;;;;;;;19.02;7.95;;;;;;;;;;5025327;28;20007;-77
2021/01/20 02:33:02;;;;;;;13.52;8.15;;;;;;;;;;5028278;28;20025;-75
2021/01/20 02:35:29;;;;;;;19.90;11.98;;;;;;;;;;5026185;28;20029;-75
2021/01/20 02:37:56;;;;;;;21.73;7.80;;;;;;;;;;5020394;28;20087;-76
2021/01/20 02:40:23;;;;;;;20.67;9.75;;;;;;;;;;5025117;28;20021;-77
2021/01/20 02:42:49;;;;;;;14.60;8.23;;;;;;;;;;5024972;28;20036;-75
2021/01/20 02:45:16;;;;;;;19.55;11.00;;;;;;;;;;5023215;28;20121;-75
2021/01/20 02:47:43;;;;;;;8.70;4.60;;;;;;;;;;5023799;28;20030;-76
2021/01/20 02:50:10;;;;;;;21.98;11.70;;;;;;;;;;5028700;28;20032;-75
2021/01/20 02:52:43;;;;;;;16.73;9.45;;;;;;;;;;5029145;28;20025;-76
2021/01/20 02:55:10;;;;;;;20.05;8.25;;;;;;;;;;5024083;28;20029;-76
2021/01/20 02:57:37;;;;;;;18.98;9.02;;;;;;;;;;5026836;28;20029;-76
2021/01/20 03:00:04;;;;;;;20.55;11.23;;;;;;;;;;5027650;28;20025;-75
2021/01/20 03:02:31;;;;;;;12.40;7.25;;;;;;;;;;5023892;28;20088;-76
2021/01/20 03:04:59;;;;;;;14.52;8.20;;;;;;;;;;5025727;28;20036;-74
2021/01/20 03:07:25;;;;;;;18.45;8.70;;;;;;;;;;5021607;28;20137;-75
2021/01/20 03:09:52;;;;;;;11.35;4.35;;;;;;;;;;5027085;28;20077;-77
2021/01/20 03:12:22;;;;;;;15.13;6.30;;;;;;;;;;5017910;28;20021;-75
2021/01/20 03:14:48;;;;;;;11.15;5.32;;;;;;;;;;5023713;28;20057;-74
2021/01/20 03:17:14;;;;;;;14.50;7.03;;;;;;;;;;5026357;28;20517;-75
2021/01/20 03:19:40;;;;;;;14.55;7.15;;;;;;;;;;5026562;28;20026;-74
2021/01/20 03:22:06;;;;;;;17.23;9.45;;;;;;;;;;5021585;28;20083;-75
2021/01/20 03:24:33;;;;;;;16.13;8.85;;;;;;;;;;5033019;28;20022;-76
2021/01/20 03:26:59;;;;;;;17.45;6.25;;;;;;;;;;5026881;28;20029;-77
2021/01/20 03:29:25;;;;;;;13.45;7.10;;;;;;;;;;5028533;28;20028;-77
2021/01/20 03:31:51;;;;;;;15.15;6.22;;;;;;;;;;5026496;28;20025;-76
2021/01/20 03:34:17;;;;;;;17.90;9.48;;;;;;;;;;5029474;28;20037;-74
2021/01/20 03:36:43;;;;;;;21.42;9.13;;;;;;;;;;5028169;28;20032;-74
2021/01/20 03:39:09;;;;;;;20.73;7.20;;;;;;;;;;5030439;28;20036;-75
2021/01/20 03:41:35;;;;;;;14.70;7.35;;;;;;;;;;5029552;28;21362;-75
2021/01/20 03:44:01;;;;;;;13.77;7.10;;;;;;;;;;5019979;28;20057;-75
2021/01/20 03:46:27;;;;;;;15.10;7.78;;;;;;;;;;5023392;28;20018;-75
2021/01/20 03:48:53;;;;;;;13.18;7.03;;;;;;;;;;5026112;28;20075;-75
2021/01/20 03:51:20;;;;;;;18.15;7.35;;;;;;;;;;5031358;28;20075;-75
2021/01/20 03:53:46;;;;;;;15.23;6.80;;;;;;;;;;5024229;28;20032;-75
2021/01/20 03:56:12;;;;;;;16.27;6.72;;;;;;;;;;5027089;28;20026;-75
2021/01/20 03:58:38;;;;;;;12.98;7.53;;;;;;;;;;5030335;28;20017;-74
2021/01/20 04:01:04;;;;;;;14.40;7.47;;;;;;;;;;5026064;28;20283;-75
2021/01/20 04:03:30;;;;;;;13.00;7.20;;;;;;;;;;5031080;28;20021;-74
2021/01/20 04:05:56;;;;;;;16.40;7.45;;;;;;;;;;5027395;28;20093;-75
2021/01/20 04:08:22;;;;;;;17.23;7.25;;;;;;;;;;5030852;28;20057;-75
2021/01/20 04:10:48;;;;;;;19.50;11.10;;;;;;;;;;5029969;28;20021;-74
2021/01/20 04:13:14;;;;;;;19.02;10.23;;;;;;;;;;5029389;28;20025;-74
2021/01/20 04:15:40;;;;;;;12.88;5.30;;;;;;;;;;5018933;28;20087;-77
2021/01/20 04:18:06;;;;;;;13.80;7.85;;;;;;;;;;5031752;28;20021;-77
2021/01/20 04:20:32;;;;;;;15.90;8.18;;;;;;;;;;5026342;28;20108;-73
2021/01/20 04:22:58;;;;;;;20.48;7.82;;;;;;;;;;5029797;28;20029;-74
2021/01/20 04:25:24;;;;;;;18.30;8.30;;;;;;;;;;5020921;28;20285;-74
2021/01/20 04:27:50;;;;;;;17.17;9.50;;;;;;;;;;5021175;28;20017;-74
2021/01/20 04:30:17;;;;;;;13.90;6.03;;;;;;;;;;5020230;28;20052;-77
2021/01/20 04:32:43;;;;;;;17.00;7.05;;;;;;;;;;5030073;28;20026;-74
2021/01/20 04:35:09;;;;;;;15.85;6.97;;;;;;;;;;5020968;28;20033;-74
2021/01/20 04:37:35;;;;;;;19.20;9.45;;;;;;;;;;5025708;28;20032;-75
2021/01/20 04:40:01;;;;;;;14.98;7.78;;;;;;;;;;5028619;28;20127;-74
2021/01/20 04:42:27;;;;;;;11.63;5.97;;;;;;;;;;5019585;28;20037;-74
2021/01/20 04:44:53;;;;;;;14.48;7.05;;;;;;;;;;5026519;28;20430;-75
2021/01/20 04:47:20;;;;;;;11.13;6.63;;;;;;;;;;5027388;28;20029;-75
2021/01/20 04:49:50;;;;;;;9.63;5.85;;;;;;;;;;5029030;28;20036;-76
2021/01/20 04:52:18;;;;;;;19.50;7.97;;;;;;;;;;5024328;28;20044;-75
2021/01/20 04:54:44;;;;;;;13.27;7.30;;;;;;;;;;5028286;28;20267;-74
2021/01/20 04:57:13;;;;;;;14.35;5.35;;;;;;;;;;5023644;28;20045;-76
2021/01/20 04:59:43;;;;;;;16.05;7.90;;;;;;;;;;5026200;28;20033;-73
2021/01/20 05:02:10;;;;;;;16.42;9.32;;;;;;;;;;5023473;28;20040;-75
2021/01/20 05:04:39;;;;;;;11.38;5.82;;;;;;;;;;5022818;28;20126;-76
2021/01/20 05:07:06;;;;;;;16.48;8.20;;;;;;;;;;5010548;28;20038;-75
2021/01/20 05:09:32;;;;;;;14.57;8.18;;;;;;;;;;5017004;28;20018;-74
2021/01/20 05:11:58;;;;;;;14.88;6.30;;;;;;;;;;5024368;28;20521;-75
2021/01/20 05:14:24;;;;;;;18.25;8.30;;;;;;;;;;5028210;28;20549;-76
2021/01/20 05:16:52;;;;;;;8.60;4.60;;;;;;;;;;5026285;28;21166;-75
2021/01/20 05:19:34;;;;;;;18.25;7.32;;;;;;;;;;5025101;28;20032;-74
2021/01/20 05:22:04;;;;;;;;;;;;;;;;;;5020965;28;20029;-74
2021/01/20 05:24:30;;;;;;;12.38;5.93;;;;;;;;;;5028561;28;19913;-78
2021/01/20 05:26:56;;;;;;;14.43;6.28;;;;;;;;;;5026086;28;20033;-74
2021/01/20 05:29:22;;;;;;;14.13;8.00;;;;;;;;;;5026545;28;20474;-74
2021/01/20 05:31:48;;;;;;;13.45;5.93;;;;;;;;;;5027308;28;21235;-75
2021/01/20 05:34:25;;;;;;;14.05;5.18;;;;;;;;;;5028329;28;20037;-76
2021/01/20 05:37:02;;;;;;;11.20;5.00;;;;;;;;;;5025737;28;20513;-75
2021/01/20 05:39:28;;;;;;;13.38;7.40;;;;;;;;;;5024417;28;20099;-74
2021/01/20 05:42:04;;;;;;;14.45;6.07;;;;;;;;;;5029591;28;20033;-74
2021/01/20 05:44:30;;;;;;;13.38;4.13;;;;;;;;;;5027042;28;20029;-75
2021/01/20 05:46:56;;;;;;;12.23;5.45;;;;;;;;;;5014218;28;20031;-75
2021/01/20 05:49:23;;;;;;;15.25;6.75;;;;;;;;;;5028206;28;20028;-75
2021/01/20 05:51:49;;;;;;;14.85;6.53;;;;;;;;;;5027705;28;20048;-75
2021/01/20 05:54:29;;;;;;;13.98;5.30;;;;;;;;;;5026509;28;20595;-74
2021/01/20 05:56:55;;;;;;;16.20;6.55;;;;;;;;;;5024326;28;20029;-74
2021/01/20 05:59:27;;;;;;;13.38;6.22;;;;;;;;;;5024488;28;20052;-76
2021/01/20 06:01:54;;;;;;;9.20;4.43;;;;;;;;;;5027585;28;20053;-74
2021/01/20 06:04:21;;;;;;;16.38;5.32;;;;;;;;;;5027764;28;20623;-75
2021/01/20 06:06:48;;;;;;;9.48;4.35;;;;;;;;;;5023258;28;20048;-78
2021/01/20 06:09:14;;;;;;;11.70;5.47;;;;;;;;;;5026682;28;20501;-74
2021/01/20 06:11:40;;;;;;;13.85;5.05;;;;;;;;;;5025350;28;20103;-74
2021/01/20 06:14:06;;;;;;;11.10;3.47;;;;;;;;;;5017978;28;20485;-75
2021/01/20 06:16:34;;;;;;;7.47;3.53;;;;;;;;;;5023053;28;20048;-75
2021/01/20 06:19:08;;;;;;;14.93;6.18;;;;;;;;;;5029836;28;20022;-75
2021/01/20 06:21:34;;;;;;;11.43;4.00;;;;;;;;;;5028234;28;20080;-76
2021/01/20 06:24:03;;;;;;;10.82;5.72;;;;;;;;;;5016991;28;20489;-75
2021/01/20 06:26:29;;;;;;;8.30;4.47;;;;;;;;;;5031287;28;20033;-74
2021/01/20 06:28:58;;;;;;;10.63;5.55;;;;;;;;;;5028522;28;20080;-75
2021/01/20 06:31:26;;;;;;;9.85;5.72;;;;;;;;;;5034888;28;20025;-75
2021/01/20 06:33:52;;;;;;;9.45;5.45;;;;;;;;;;5026076;28;20044;-76
2021/01/20 06:36:32;;;;;;;7.13;3.53;;;;;;;;;;5022314;28;20024;-74
2021/01/20 06:38:58;;;;;;;12.30;5.82;;;;;;;;;;5020801;28;20059;-76
2021/01/20 06:41:39;;;;;;;10.00;5.45;;;;;;;;;;5024560;28;20029;-75
2021/01/20 06:44:13;;;;;;;10.57;5.50;;;;;;;;;;5027895;28;20104;-76
2021/01/20 06:46:58;;;;;;;6.43;3.22;;;;;;;;;;5021860;28;20553;-75
2021/01/20 06:49:24;;;;;;;9.25;4.47;;;;;;;;;;5025818;28;20022;-73
2021/01/20 06:52:07;;;;;;;10.52;4.20;;;;;;;;;;5023692;28;20036;-73
2021/01/20 06:54:34;;;;;;;10.10;3.15;;;;;;;;;;5028830;28;20029;-74
2021/01/20 06:57:00;;;;;;;12.93;5.80;;;;;;;;;;5023116;28;20034;-74
2021/01/20 06:59:30;;;;;;;7.95;3.45;;;;;;;;;;5026515;28;20284;-74
2021/01/20 07:02:04;;;;;;;12.38;2.75;;;;;;;;;;5032295;28;20083;-74
2021/01/20 07:04:39;;;;;;;11.00;5.72;;;;;;;;;;5031994;28;20037;-75
2021/01/20 07:07:09;;;;;;;16.75;4.88;;;;;;;;;;5027545;28;20037;-75
2021/01/20 07:09:51;;;;;;;6.07;3.45;;;;;;;;;;5031923;28;20099;-74
2021/01/20 07:12:24;;;;;;;5.00;2.60;;;;;;;;;;5039250;28;20083;-75
2021/01/20 07:14:50;;;;;;;9.48;3.92;;;;;;;;;;5026813;28;20454;-73
2021/01/20 07:17:17;;;;;;;8.48;5.00;;;;;;;;;;5028978;28;20451;-74
2021/01/20 07:19:44;;;;;;;12.32;6.00;;;;;;;;;;5047706;28;20037;-75
2021/01/20 07:22:11;;;;;;;10.35;5.22;;;;;;;;;;5034863;28;20489;-75
2021/01/20 07:24:37;;;;;;;8.57;3.40;;;;;;;;;;5035713;28;20104;-75
2021/01/20 07:27:10;;;;;;;6.75;3.03;;;;;;;;;;5031059;28;20049;-75
2021/01/20 07:29:37;;;;;;;5.57;3.00;;;;;;;;;;5032829;28;20020;-74
2021/01/20 07:32:03;;;;;;;9.50;3.85;;;;;;;;;;5039239;28;20032;-76
2021/01/20 07:34:36;;;;;;;4.88;3.00;;;;;;;;;;5023331;28;20026;-75
2021/01/20 07:37:13;;;;;;;10.13;3.95;;;;;;;;;;5030026;28;20053;-73
2021/01/20 07:39:39;;;;;;;9.32;2.45;;;;;;;;;;5032393;28;20037;-75
2021/01/20 07:42:06;;;;;;;9.13;3.70;;;;;;;;;;5041857;28;20040;-76
2021/01/20 07:44:32;;;;;;;7.75;3.72;;;;;;;;;;5037429;28;20037;-77
2021/01/20 07:47:02;;;;;;;8.05;3.05;;;;;;;;;;5024823;28;20030;-75
2021/01/20 07:49:28;;;;;;;9.77;3.67;;;;;;;;;;5021753;28;20109;-75
2021/01/20 07:52:00;;;;;;;7.80;2.70;;;;;;;;;;5030713;28;20088;-75
2021/01/20 07:54:34;;;;;;;7.07;3.03;;;;;;;;;;5037395;28;20025;-73
2021/01/20 07:57:00;;;;;;;14.48;4.22;;;;;;;;;;5023778;28;20040;-74
2021/01/20 07:59:26;;;;;;;7.85;3.17;;;;;;;;;;5025958;28;20030;-70
2021/01/20 08:01:52;;;;;;;5.47;2.30;;;;;;;;;;5029155;28;20021;-76
2021/01/20 08:04:21;;;;;;;6.75;2.53;;;;;;;;;;5025884;28;20502;-75
2021/01/20 08:06:48;;;;;;;10.07;3.00;;;;;;;;;;5038548;28;20037;-75
2021/01/20 08:09:14;;;;;;;10.02;4.10;;;;;;;;;;5032317;28;20037;-73
2021/01/20 08:11:42;;;;;;;8.35;3.45;;;;;;;;;;5026985;28;20025;-77
2021/01/20 08:14:09;;;;;;;5.85;2.58;;;;;;;;;;5031098;28;20027;-73
2021/01/20 08:16:35;;;;;;;6.22;2.45;;;;;;;;;;5040421;28;20112;-76
2021/01/20 08:19:03;;;;;;;6.97;2.47;;;;;;;;;;5037392;28;20021;-74
2021/01/20 08:21:29;;;;;;;7.50;3.20;;;;;;;;;;5031040;28;20022;-75
2021/01/20 08:23:56;;;;;;;10.13;3.83;;;;;;;;;;5032880;28;20032;-72
2021/01/20 08:26:23;;;;;;;5.95;2.65;;;;;;;;;;5025621;28;20026;-72
2021/01/20 08:29:09;;;;;;;8.13;3.15;;;;;;;;;;5035472;28;20034;-73
2021/01/20 08:31:36;;;;;;;10.48;3.90;;;;;;;;;;5026762;28;20489;-72
2021/01/20 08:34:20;;;;;;;5.68;2.42;;;;;;;;;;5024494;28;20018;-73
2021/01/20 08:36:52;;;;;;;5.57;2.50;;;;;;;;;;5039940;28;20546;-73
2021/01/20 08:39:18;;;;;;;7.68;3.63;;;;;;;;;;5029244;28;20025;-71
2021/01/20 08:42:04;;;;;;;7.88;3.78;;;;;;;;;;5031012;28;20378;-71
2021/01/20 08:44:30;;;;;;;7.65;3.38;;;;;;;;;;5019745;28;20498;-72
2021/01/20 08:46:56;;;;;;;11.98;2.67;;;;;;;;;;5028586;28;20043;-71
2021/01/20 08:49:22;;;;;;;8.75;3.50;;;;;;;;;;5026507;28;20052;-74
2021/01/20 08:51:58;;;;;;;8.85;3.00;;;;;;;;;;5025603;28;20080;-71
2021/01/20 08:54:25;;;;;;;9.05;3.97;;;;;;;;;;5034376;28;20037;-71
2021/01/20 08:56:51;;;;;;;8.32;3.22;;;;;;;;;;5027102;28;20036;-73
2021/01/20 08:59:17;;;;;;;6.63;3.00;;;;;;;;;;5030176;28;20076;-71
2021/01/20 09:01:43;;;;;;;6.18;2.55;;;;;;;;;;5029816;28;20654;-73
2021/01/20 09:04:10;;;;;;;7.63;1.92;;;;;;;;;;5038723;28;20036;-71
2021/01/20 09:06:36;;;;;;;5.75;2.67;;;;;;;;;;5024439;28;20076;-71
2021/01/20 09:09:02;;;;;;;5.68;2.88;;;;;;;;;;5030170;28;20028;-71
2021/01/20 09:11:29;;;;;;;12.30;4.18;;;;;;;;;;5031385;28;20029;-71
2021/01/20 09:13:55;;;;;;;7.72;4.18;;;;;;;;;;5023938;28;20024;-72
2021/01/20 09:16:30;;;;;;;9.80;3.95;;;;;;;;;;5025822;28;20033;-72
2021/01/20 09:18:57;;;;;;;9.00;3.10;;;;;;;;;;5035128;28;20789;-72
2021/01/20 09:21:23;;;;;;;4.25;1.95;;;;;;;;;;5026315;28;20448;-72
2021/01/20 09:23:49;;;;;;;4.20;2.10;;;;;;;;;;5030501;28;20033;-73
2021/01/20 09:26:16;;;;;;;5.60;2.38;;;;;;;;;;5030271;28;20163;-72
2021/01/20 09:28:42;;;;;;;5.57;2.25;;;;;;;;;;5019864;28;20033;-70
2021/01/20 09:31:08;;;;;;;9.80;2.72;;;;;;;;;;5022382;28;20049;-72
2021/01/20 09:33:34;;;;;;;15.25;3.20;;;;;;;;;;5019858;28;20096;-72
2021/01/20 09:36:00;;;;;;;8.95;3.80;;;;;;;;;;5029964;28;20099;-71
2021/01/20 09:38:26;;;;;;;7.25;3.15;;;;;;;;;;5034022;28;20048;-71
2021/01/20 09:40:53;;;;;;;7.80;3.30;;;;;;;;;;5028619;28;20549;-71
2021/01/20 09:43:21;;;;;;;8.25;2.95;;;;;;;;;;5025466;28;20180;-71
2021/01/20 09:45:48;;;;;;;7.75;3.38;;;;;;;;;;5022531;28;20029;-71
2021/01/20 09:48:16;;;;;;;5.05;2.17;;;;;;;;;;5029505;28;20045;-69
2021/01/20 09:50:44;;;;;;;4.57;1.77;;;;;;;;;;5022226;28;20030;-72
2021/01/20 09:53:12;;;;;;;10.00;3.10;;;;;;;;;;5029603;28;20041;-73
2021/01/20 09:55:38;;;;;;;6.50;2.58;;;;;;;;;;5015671;28;20088;-72
2021/01/20 09:58:04;;;;;;;9.48;2.40;;;;;;;;;;5026856;28;20044;-70
2021/01/20 10:00:31;;;;;;;9.80;3.88;;;;;;;;;;5024529;28;20022;-69
2021/01/20 10:03:00;;;;;;;5.07;2.03;;;;;;;;;;5022605;28;20129;-71
2021/01/20 10:05:26;;;;;;;4.88;2.10;;;;;;;;;;5022882;28;20096;-70
2021/01/20 10:07:52;;;;;;;7.72;3.25;;;;;;;;;;5041601;28;20409;-70
2021/01/20 10:10:18;;;;;;;6.25;2.90;;;;;;;;;;5027621;28;20044;-74
2021/01/20 10:12:44;;;;;;;8.52;2.67;;;;;;;;;;5030050;28;20017;-71
2021/01/20 10:15:10;;;;;;;6.97;2.75;;;;;;;;;;5019642;28;20331;-69
2021/01/20 10:17:36;;;;;;;12.35;3.33;;;;;;;;;;5025708;28;20037;-71
2021/01/20 10:20:07;;;;;;;6.78;3.22;;;;;;;;;;5025312;28;20034;-69
2021/01/20 10:22:33;;;;;;;8.35;3.83;;;;;;;;;;5032950;28;20044;-68
2021/01/20 10:24:59;;;;;;;6.80;2.38;;;;;;;;;;5023363;28;20270;-70
2021/01/20 10:27:25;;;;;;;6.70;3.10;;;;;;;;;;5044787;28;20022;-71
2021/01/20 10:29:51;;;;;;;8.63;2.42;;;;;;;;;;5031330;28;20381;-71
2021/01/20 10:32:17;;;;;;;7.53;2.72;;;;;;;;;;5038612;28;20042;-72
2021/01/20 10:34:43;;;;;;;10.27;3.47;;;;;;;;;;5038721;28;20044;-72
2021/01/20 10:37:09;;;;;;;9.73;2.92;;;;;;;;;;5024028;28;20026;-72
2021/01/20 10:39:35;;;;;;;7.03;2.88;;;;;;;;;;5032326;28;20025;-72
2021/01/20 10:42:01;;;;;;;8.60;2.45;;;;;;;;;;5027493;28;20025;-71
2021/01/20 10:44:27;;;;;;;8.73;2.70;;;;;;;;;;5029403;28;20556;-72
2021/01/20 10:46:54;;;;;;;3.70;2.10;;;;;;;;;;5018744;28;20130;-72
2021/01/20 10:49:20;;;;;;;7.53;2.65;;;;;;;;;;5031814;28;20032;-71
2021/01/20 10:51:46;;;;;;;7.38;2.47;;;;;;;;;;5033630;28;20021;-72
2021/01/20 10:54:12;;;;;;;12.15;3.72;;;;;;;;;;5036924;28;20081;-71
2021/01/20 10:56:40;;;;;;;6.93;3.38;;;;;;;;;;5028822;28;20413;-70
2021/01/20 10:59:06;;;;;;;6.45;3.03;;;;;;;;;;5032420;28;20029;-71
2021/01/20 11:01:32;;;;;;;6.45;3.22;;;;;;;;;;5030624;28;20544;-71
2021/01/20 11:03:58;;;;;;;9.60;3.05;;;;;;;;;;5032742;28;20056;-72
2021/01/20 11:06:24;;;;;;;8.45;2.95;;;;;;;;;;5035534;28;20021;-72
2021/01/20 11:08:50;;;;;;;8.93;3.20;;;;;;;;;;5036364;28;20100;-70
2021/01/20 11:11:17;;;;;;;6.20;2.40;;;;;;;;;;5029570;28;20031;-70
2021/01/20 11:13:44;;;;;;;4.97;1.70;;;;;;;;;;5027490;28;20029;-71
2021/01/20 11:16:11;;;;;;;7.85;2.53;;;;;;;;;;5034610;28;20033;-70
2021/01/20 11:18:37;;;;;;;9.77;3.13;;;;;;;;;;5032858;28;20025;-71
2021/01/20 11:21:03;;;;;;;8.40;2.95;;;;;;;;;;5026127;28;20025;-70
2021/01/20 11:23:35;;;;;;;6.38;1.50;;;;;;;;;;5032330;28;20046;-70
2021/01/20 11:26:02;;;;;;;7.22;2.65;;;;;;;;;;5038628;28;20080;-71
2021/01/20 11:28:28;;;;;;;8.25;2.47;;;;;;;;;;5027938;28;20026;-71
2021/01/20 11:30:55;;;;;;;6.50;2.92;;;;;;;;;;5027583;28;20465;-72
2021/01/20 11:33:21;;;;;;;9.35;3.45;;;;;;;;;;5029183;28;20029;-70
2021/01/20 11:35:47;;;;;;;9.98;3.30;;;;;;;;;;5024171;28;20167;-72
2021/01/20 11:38:13;;;;;;;8.55;3.58;;;;;;;;;;5020431;28;20057;-71
2021/01/20 11:40:39;;;;;;;7.43;3.05;;;;;;;;;;5028404;28;20025;-72
2021/01/20 11:43:06;;;;;;;8.95;3.60;;;;;;;;;;5023715;28;20029;-72
2021/01/20 11:45:36;;;;;;;6.05;3.03;;;;;;;;;;5020246;28;20033;-71
2021/01/20 11:48:04;;;;;;;8.95;2.90;;;;;;;;;;5029479;28;20018;-71
2021/01/20 11:50:30;;;;;;;14.27;3.55;;;;;;;;;;5025935;28;20079;-71
2021/01/20 11:52:56;;;;;;;6.72;3.20;;;;;;;;;;5029598;28;20500;-70
2021/01/20 11:55:23;;;;;;;10.50;4.07;;;;;;;;;;5032028;28;20651;-71
2021/01/20 11:57:50;;;;;;;9.82;3.08;;;;;;;;;;5030638;28;20029;-71
2021/01/20 12:00:17;;;;;;;5.38;1.92;;;;;;;;;;5037398;28;20029;-70
2021/01/20 12:02:43;;;;;;;7.05;2.55;;;;;;;;;;5022841;28;20039;-70
2021/01/20 12:05:13;;;;;;;4.47;1.90;;;;;;;;;;5024069;28;20206;-71
2021/01/20 12:07:39;;;;;;;5.78;2.45;;;;;;;;;;5025245;28;20052;-71
2021/01/20 12:10:06;;;;;;;5.25;2.75;;;;;;;;;;5030838;28;20038;-72
2021/01/20 12:12:32;;;;;;;8.23;2.83;;;;;;;;;;5026184;28;20034;-70
2021/01/20 12:14:58;;;;;;;6.85;2.17;;;;;;;;;;5017918;28;20501;-71
2021/01/20 12:17:24;;;;;;;3.28;1.02;;;;;;;;;;5029064;28;20012;-70
2021/01/20 12:19:51;;;;;;;4.80;1.73;;;;;;;;;;5025404;28;20493;-72
2021/01/20 12:22:17;;;;;;;4.22;2.08;;;;;;;;;;5030038;28;20484;-71
2021/01/20 12:24:43;;;;;;;7.10;2.72;;;;;;;;;;5026501;28;20026;-71
2021/01/20 12:27:09;;;;;;;7.15;2.38;;;;;;;;;;5030345;28;20064;-71
2021/01/20 12:29:35;;;;;;;5.60;2.10;;;;;;;;;;5033979;28;20029;-71
2021/01/20 12:32:01;;;;;;;6.20;2.55;;;;;;;;;;5021757;28;20022;-71
2021/01/20 12:34:27;;;;;;;9.80;2.83;;;;;;;;;;5029536;28;20021;-71
2021/01/20 12:36:53;;;;;;;6.68;2.72;;;;;;;;;;5023255;28;20018;-70
2021/01/20 12:39:19;;;;;;;9.88;3.15;;;;;;;;;;5025293;28;20032;-70
2021/01/20 12:41:45;;;;;;;10.52;2.20;;;;;;;;;;5034983;28;20049;-74
2021/01/20 12:44:12;;;;;;;11.38;3.70;;;;;;;;;;5047021;28;20060;-70
2021/01/20 12:46:38;;;;;;;7.47;2.63;;;;;;;;;;5035846;28;20036;-70
2021/01/20 12:49:05;;;;;;;8.77;3.08;;;;;;;;;;5022638;28;20026;-71
2021/01/20 12:51:31;;;;;;;5.53;1.77;;;;;;;;;;5034783;28;20029;-70
2021/01/20 12:53:57;;;;;;;8.02;3.45;;;;;;;;;;5029329;28;20091;-70
2021/01/20 12:56:23;;;;;;;7.50;2.10;;;;;;;;;;5024295;28;20083;-70
2021/01/20 12:58:49;;;;;;;4.30;1.58;;;;;;;;;;5040975;28;20021;-71
2021/01/20 13:01:16;;;;;;;5.88;2.33;;;;;;;;;;5028631;28;20033;-70
2021/01/20 13:03:42;;;;;;;7.85;2.25;;;;;;;;;;5034098;28;20025;-70
2021/01/20 13:06:08;;;;;;;7.55;2.20;;;;;;;;;;5027351;28;20480;-72
2021/01/20 13:08:34;;;;;;;6.60;2.90;;;;;;;;;;5034680;28;20061;-73
2021/01/20 13:11:00;;;;;;;10.02;2.70;;;;;;;;;;5028851;28;20018;-69
2021/01/20 13:13:26;;;;;;;2.65;1.27;;;;;;;;;;5027931;28;20017;-72
2021/01/20 13:15:52;;;;;;;11.50;2.90;;;;;;;;;;5028009;28;20033;-72
2021/01/20 13:18:19;;;;;;;6.18;2.13;;;;;;;;;;5028131;28;20033;-69
2021/01/20 13:20:45;;;;;;;8.55;3.10;;;;;;;;;;5027676;28;20079;-70
2021/01/20 13:23:11;;;;;;;7.60;2.10;;;;;;;;;;5036647;28;20033;-70
2021/01/20 13:25:37;;;;;;;8.20;2.55;;;;;;;;;;5021804;28;20025;-70
2021/01/20 13:28:03;;;;;;;6.43;2.72;;;;;;;;;;5027634;28;20037;-71
2021/01/20 13:30:29;;;;;;;6.97;2.30;;;;;;;;;;5037324;28;20025;-70
2021/01/20 13:32:55;;;;;;;10.68;3.22;;;;;;;;;;5019686;28;20725;-71
2021/01/20 13:35:22;;;;;;;5.40;2.28;;;;;;;;;;5022364;28;20449;-71
2021/01/20 13:37:48;;;;;;;6.85;2.40;;;;;;;;;;5028308;28;20040;-70
2021/01/20 13:40:14;;;;;;;10.35;2.70;;;;;;;;;;5017928;28;20033;-70
2021/01/20 13:42:41;;;;;;;8.07;2.70;;;;;;;;;;5033065;28;20029;-69
2021/01/20 13:45:07;;;;;;;7.60;2.20;;;;;;;;;;5025406;28;20029;-68
2021/01/20 13:47:34;;;;;;;3.13;1.60;;;;;;;;;;5030305;28;20508;-69
2021/01/20 13:50:00;;;;;;;7.45;2.70;;;;;;;;;;5027171;28;20025;-70
2021/01/20 13:52:26;;;;;;;5.28;2.08;;;;;;;;;;5024660;28;20009;-70
2021/01/20 13:54:52;;;;;;;8.50;3.00;;;;;;;;;;5018767;28;20033;-69
2021/01/20 13:57:18;;;;;;;7.97;2.95;;;;;;;;;;5028673;28;20043;-70
2021/01/20 13:59:44;;;;;;;8.45;3.05;;;;;;;;;;5029900;28;20576;-70
2021/01/20 14:02:10;;;;;;;6.80;1.65;;;;;;;;;;5025937;28;20032;-71
2021/01/20 14:04:37;;;;;;;6.85;2.70;;;;;;;;;;5030209;28;20029;-69
2021/01/20 14:07:03;;;;;;;5.53;2.42;;;;;;;;;;5022629;28;20049;-70
2021/01/20 14:09:30;;;;;;;5.93;1.50;;;;;;;;;;5041455;28;20029;-71
2021/01/20 14:11:56;;;;;;;5.03;1.73;;;;;;;;;;5026682;28;20030;-71
2021/01/20 14:14:22;;;;;;;9.73;2.75;;;;;;;;;;5029389;28;20025;-70
2021/01/20 14:16:49;;;;;;;5.78;1.85;;;;;;;;;;5024738;28;20044;-70
2021/01/20 14:19:15;;;;;;;7.40;2.42;;;;;;;;;;5027111;28;20080;-70
2021/01/20 14:21:41;;;;;;;4.43;1.75;;;;;;;;;;5025379;28;20027;-71
2021/01/20 14:24:07;;;;;;;7.85;3.05;;;;;;;;;;5028440;28;20033;-72
2021/01/20 14:26:33;;;;;;;6.85;2.90;;;;;;;;;;5025609;28;20039;-71
2021/01/20 14:29:00;;;;;;;7.30;2.25;;;;;;;;;;5025337;28;20026;-70
2021/01/20 14:31:26;;;;;;;7.68;2.80;;;;;;;;;;5026683;28;20017;-70
2021/01/20 14:33:52;;;;;;;7.47;2.72;;;;;;;;;;5026253;28;20037;-71
2021/01/20 14:36:19;;;;;;;4.53;1.58;;;;;;;;;;5023894;28;20060;-71